This is the latest recevied weather packets stored in our database for station/object DL4ABR-6. If no packets are shown the sender has not sent any weather packets the latest 1 day(s).
| Time | Temp. | Humidity | Pressure | Rain* | Wind** | Luminosity | Snow |
|---|---|---|---|---|---|---|---|
| 1836274394 | 12.78° C | 98% | 1012.6 hPa | 0 mm | 0 m/s | - | - |
| 1836274309 | 12.78° C | 98% | 1012.5 hPa | 0 mm | 0 m/s | - | - |
| 1778057370 | 8.33° C | 99% | 1002.5 hPa | 19.3 mm | 0 m/s | - | - |
| 1778056595 | 8.33° C | 99% | 1002.5 hPa | 18.54 mm | 0 m/s | - | - |
| 1778055817 | 7.78° C | 99% | 1002.3 hPa | 18.29 mm | 0 m/s | - | - |
| 1778055015 | 7.78° C | 99% | 1002.4 hPa | 17.78 mm | 0 m/s | - | - |
| 1778054159 | 7.78° C | 99% | 1002.3 hPa | 17.27 mm | 0.45 m/s, 285° | - | - |
| 1778053310 | 7.78° C | 99% | 1002.4 hPa | 16.51 mm | 0 m/s | - | - |
| 1778052430 | 7.78° C | 99% | 1002.3 hPa | 16 mm | 0 m/s | - | - |
| 1778051595 | 7.78° C | 99% | 1002.1 hPa | 15.75 mm | 0 m/s | - | - |
| 1778050804 | 7.78° C | 99% | 1002.3 hPa | 15.24 mm | 0 m/s | - | - |
| 1778049923 | 7.78° C | 99% | 1002.1 hPa | 14.99 mm | 0 m/s | - | - |
| 1778049090 | 8.33° C | 99% | 1002.2 hPa | 14.48 mm | 0 m/s | - | - |
| 1778048275 | 8.33° C | 99% | 1001.9 hPa | 13.97 mm | 0 m/s | - | - |
| 1778047445 | 8.33° C | 99% | 1001.9 hPa | 13.72 mm | 0 m/s | - | - |
| 1778046645 | 8.33° C | 99% | 1001.8 hPa | 13.21 mm | 0 m/s | - | - |
| 1778045820 | 8.33° C | 99% | 1001.6 hPa | 13.21 mm | 0 m/s | - | - |
| 1778044975 | 8.33° C | 99% | 1001.8 hPa | 12.7 mm | 0 m/s | - | - |
| 1778044078 | 8.33° C | 99% | 1001.9 hPa | 12.19 mm | 0 m/s | - | - |
| 1778043314 | 8.33° C | 99% | 1001.7 hPa | 11.68 mm | 0 m/s | - | - |
| 1778042460 | 8.33° C | 99% | 1001.9 hPa | 11.18 mm | 0 m/s | - | - |
| 1778041595 | 8.33° C | 99% | 1001.8 hPa | 10.41 mm | 0 m/s | - | - |
| 1778040715 | 8.33° C | 99% | 1002 hPa | 9.14 mm | 0 m/s | - | - |
| 1778039920 | 8.33° C | 99% | 1002.1 hPa | 8.13 mm | 0 m/s | - | - |
| 1778039195 | 8.33° C | 99% | 1001.9 hPa | 7.11 mm | 0 m/s | - | - |
* Rain since midnight (hover to see other rain measurements)
** Current wind speed in m/s (hover to see current wind gust speed)